sensor_id;sensor_type;location;lat;lon;timestamp;P1;durP1;ratioP1;P2;durP2;ratioP2
22983;SDS011;11658;48.908;9.140;2024-01-30T05:01:23;7.73;;;6.07;;
22983;SDS011;11658;48.908;9.140;2024-01-30T05:03:49;7.37;;;5.37;;
22983;SDS011;11658;48.908;9.140;2024-01-30T05:06:23;6.60;;;5.30;;
22983;SDS011;11658;48.908;9.140;2024-01-30T05:08:50;8.07;;;6.63;;
22983;SDS011;11658;48.908;9.140;2024-01-30T05:11:15;7.07;;;5.33;;
22983;SDS011;11658;48.908;9.140;2024-01-30T05:13:41;7.33;;;5.77;;
22983;SDS011;11658;48.908;9.140;2024-01-30T05:16:07;7.80;;;6.03;;
22983;SDS011;11658;48.908;9.140;2024-01-30T05:18:32;6.10;;;5.50;;
22983;SDS011;11658;48.908;9.140;2024-01-30T05:20:58;6.57;;;5.40;;
22983;SDS011;11658;48.908;9.140;2024-01-30T05:23:24;7.13;;;5.63;;
22983;SDS011;11658;48.908;9.140;2024-01-30T05:25:50;7.93;;;6.17;;
22983;SDS011;11658;48.908;9.140;2024-01-30T05:28:15;8.83;;;5.97;;
22983;SDS011;11658;48.908;9.140;2024-01-30T05:30:41;6.67;;;5.97;;
22983;SDS011;11658;48.908;9.140;2024-01-30T05:33:06;7.77;;;5.50;;
22983;SDS011;11658;48.908;9.140;2024-01-30T05:35:32;8.17;;;6.57;;
22983;SDS011;11658;48.908;9.140;2024-01-30T05:37:58;8.63;;;6.07;;
22983;SDS011;11658;48.908;9.140;2024-01-30T05:40:23;7.13;;;6.43;;
22983;SDS011;11658;48.908;9.140;2024-01-30T05:42:49;6.93;;;6.23;;
22983;SDS011;11658;48.908;9.140;2024-01-30T05:45:14;8.00;;;6.00;;
22983;SDS011;11658;48.908;9.140;2024-01-30T05:47:40;6.90;;;6.03;;
22983;SDS011;11658;48.908;9.140;2024-01-30T05:50:05;8.00;;;6.43;;
22983;SDS011;11658;48.908;9.140;2024-01-30T05:52:32;6.90;;;5.97;;
22983;SDS011;11658;48.908;9.140;2024-01-30T05:54:57;8.43;;;6.00;;
22983;SDS011;11658;48.908;9.140;2024-01-30T05:57:23;8.57;;;6.27;;
22983;SDS011;11658;48.908;9.140;2024-01-30T05:59:48;8.83;;;6.53;;
22983;SDS011;11658;48.908;9.140;2024-01-30T06:02:16;7.20;;;6.10;;
22983;SDS011;11658;48.908;9.140;2024-01-30T06:04:42;8.83;;;6.63;;
22983;SDS011;11658;48.908;9.140;2024-01-30T06:07:07;8.07;;;6.30;;
22983;SDS011;11658;48.908;9.140;2024-01-30T06:09:33;8.93;;;5.63;;
22983;SDS011;11658;48.908;9.140;2024-01-30T06:11:58;7.83;;;6.10;;
22983;SDS011;11658;48.908;9.140;2024-01-30T06:14:24;7.13;;;6.13;;
22983;SDS011;11658;48.908;9.140;2024-01-30T06:16:49;6.60;;;5.87;;
22983;SDS011;11658;48.908;9.140;2024-01-30T06:19:15;7.93;;;6.43;;
22983;SDS011;11658;48.908;9.140;2024-01-30T06:21:41;8.13;;;6.57;;
22983;SDS011;11658;48.908;9.140;2024-01-30T06:24:06;7.73;;;6.37;;
22983;SDS011;11658;48.908;9.140;2024-01-30T06:26:32;8.33;;;6.47;;
22983;SDS011;11658;48.908;9.140;2024-01-30T06:28:59;8.80;;;7.07;;
22983;SDS011;11658;48.908;9.140;2024-01-30T06:31:24;9.00;;;6.43;;
22983;SDS011;11658;48.908;9.140;2024-01-30T06:33:50;8.93;;;6.87;;
22983;SDS011;11658;48.908;9.140;2024-01-30T06:36:16;7.93;;;6.80;;
22983;SDS011;11658;48.908;9.140;2024-01-30T06:38:41;8.90;;;7.50;;
22983;SDS011;11658;48.908;9.140;2024-01-30T06:41:07;9.93;;;7.40;;
22983;SDS011;11658;48.908;9.140;2024-01-30T06:43:32;10.90;;;7.50;;
22983;SDS011;11658;48.908;9.140;2024-01-30T06:45:58;9.00;;;6.57;;
22983;SDS011;11658;48.908;9.140;2024-01-30T06:48:24;8.60;;;6.93;;
22983;SDS011;11658;48.908;9.140;2024-01-30T06:50:50;10.70;;;8.50;;
22983;SDS011;11658;48.908;9.140;2024-01-30T06:53:18;13.60;;;9.03;;
22983;SDS011;11658;48.908;9.140;2024-01-30T06:55:44;10.90;;;7.27;;
22983;SDS011;11658;48.908;9.140;2024-01-30T06:58:10;9.53;;;7.10;;
22983;SDS011;11658;48.908;9.140;2024-01-30T07:00:35;7.57;;;6.70;;
22983;SDS011;11658;48.908;9.140;2024-01-30T07:03:01;7.97;;;6.67;;
22983;SDS011;11658;48.908;9.140;2024-01-30T07:05:27;8.23;;;7.10;;
22983;SDS011;11658;48.908;9.140;2024-01-30T07:07:52;7.43;;;6.27;;
22983;SDS011;11658;48.908;9.140;2024-01-30T07:10:18;8.87;;;6.30;;
22983;SDS011;11658;48.908;9.140;2024-01-30T07:12:44;8.20;;;6.43;;
22983;SDS011;11658;48.908;9.140;2024-01-30T07:15:09;8.80;;;6.57;;
22983;SDS011;11658;48.908;9.140;2024-01-30T07:17:35;7.73;;;6.93;;
22983;SDS011;11658;48.908;9.140;2024-01-30T07:20:01;7.47;;;6.30;;
22983;SDS011;11658;48.908;9.140;2024-01-30T07:22:30;8.33;;;6.27;;
22983;SDS011;11658;48.908;9.140;2024-01-30T07:24:56;8.00;;;6.07;;
22983;SDS011;11658;48.908;9.140;2024-01-30T07:27:21;7.17;;;6.10;;
22983;SDS011;11658;48.908;9.140;2024-01-30T07:29:47;9.50;;;7.00;;
22983;SDS011;11658;48.908;9.140;2024-01-30T07:32:12;10.10;;;6.20;;
22983;SDS011;11658;48.908;9.140;2024-01-30T07:34:38;9.67;;;6.40;;
22983;SDS011;11658;48.908;9.140;2024-01-30T07:37:04;7.73;;;5.93;;
22983;SDS011;11658;48.908;9.140;2024-01-30T07:39:29;7.47;;;6.17;;
22983;SDS011;11658;48.908;9.140;2024-01-30T07:41:55;7.40;;;6.60;;
22983;SDS011;11658;48.908;9.140;2024-01-30T07:44:20;7.60;;;6.57;;
22983;SDS011;11658;48.908;9.140;2024-01-30T07:46:47;8.40;;;7.27;;
22983;SDS011;11658;48.908;9.140;2024-01-30T07:49:12;8.40;;;6.40;;
22983;SDS011;11658;48.908;9.140;2024-01-30T07:51:39;8.67;;;6.13;;
22983;SDS011;11658;48.908;9.140;2024-01-30T07:54:05;7.97;;;6.80;;
22983;SDS011;11658;48.908;9.140;2024-01-30T07:56:31;7.97;;;7.07;;
22983;SDS011;11658;48.908;9.140;2024-01-30T07:58:56;7.27;;;5.97;;
22983;SDS011;11658;48.908;9.140;2024-01-30T08:01:22;9.13;;;6.00;;
22983;SDS011;11658;48.908;9.140;2024-01-30T08:03:48;8.13;;;5.90;;
22983;SDS011;11658;48.908;9.140;2024-01-30T08:06:13;8.07;;;5.97;;
22983;SDS011;11658;48.908;9.140;2024-01-30T08:08:39;8.43;;;6.10;;
22983;SDS011;11658;48.908;9.140;2024-01-30T08:11:04;7.67;;;6.20;;
22983;SDS011;11658;48.908;9.140;2024-01-30T08:13:30;7.17;;;6.47;;
22983;SDS011;11658;48.908;9.140;2024-01-30T08:15:56;9.10;;;6.73;;
22983;SDS011;11658;48.908;9.140;2024-01-30T08:18:21;9.97;;;7.37;;
22983;SDS011;11658;48.908;9.140;2024-01-30T08:20:47;8.27;;;5.90;;
22983;SDS011;11658;48.908;9.140;2024-01-30T08:23:14;7.37;;;5.67;;
22983;SDS011;11658;48.908;9.140;2024-01-30T08:25:39;8.73;;;5.73;;
22983;SDS011;11658;48.908;9.140;2024-01-30T08:28:05;6.03;;;5.43;;
22983;SDS011;11658;48.908;9.140;2024-01-30T08:30:32;9.97;;;5.50;;
22983;SDS011;11658;48.908;9.140;2024-01-30T08:32:57;7.03;;;5.57;;
22983;SDS011;11658;48.908;9.140;2024-01-30T08:35:23;6.60;;;5.70;;
22983;SDS011;11658;48.908;9.140;2024-01-30T08:37:48;7.17;;;5.63;;
22983;SDS011;11658;48.908;9.140;2024-01-30T08:40:14;7.57;;;5.67;;
22983;SDS011;11658;48.908;9.140;2024-01-30T08:42:40;7.33;;;5.30;;
22983;SDS011;11658;48.908;9.140;2024-01-30T08:45:05;7.60;;;5.90;;
22983;SDS011;11658;48.908;9.140;2024-01-30T08:47:31;7.67;;;5.60;;
22983;SDS011;11658;48.908;9.140;2024-01-30T08:49:58;7.73;;;5.50;;
22983;SDS011;11658;48.908;9.140;2024-01-30T08:52:23;6.17;;;5.57;;
22983;SDS011;11658;48.908;9.140;2024-01-30T08:54:49;8.07;;;5.67;;
22983;SDS011;11658;48.908;9.140;2024-01-30T08:57:15;7.70;;;5.60;;
22983;SDS011;11658;48.908;9.140;2024-01-30T08:59:40;7.53;;;5.80;;
22983;SDS011;11658;48.908;9.140;2024-01-30T09:02:06;6.20;;;5.40;;
22983;SDS011;11658;48.908;9.140;2024-01-30T09:04:31;8.97;;;6.10;;
22983;SDS011;11658;48.908;9.140;2024-01-30T09:06:57;9.10;;;6.00;;
22983;SDS011;11658;48.908;9.140;2024-01-30T09:09:22;9.17;;;6.60;;
22983;SDS011;11658;48.908;9.140;2024-01-30T09:11:48;7.70;;;6.00;;
22983;SDS011;11658;48.908;9.140;2024-01-30T09:14:14;7.93;;;6.40;;
22983;SDS011;11658;48.908;9.140;2024-01-30T09:16:39;7.67;;;6.20;;
22983;SDS011;11658;48.908;9.140;2024-01-30T09:19:05;7.20;;;6.00;;
22983;SDS011;11658;48.908;9.140;2024-01-30T09:21:30;8.63;;;6.43;;
22983;SDS011;11658;48.908;9.140;2024-01-30T09:24:01;9.97;;;6.43;;
22983;SDS011;11658;48.908;9.140;2024-01-30T09:26:28;14.03;;;6.60;;
22983;SDS011;11658;48.908;9.140;2024-01-30T09:28:54;8.93;;;6.50;;
22983;SDS011;11658;48.908;9.140;2024-01-30T09:31:20;7.40;;;6.23;;
22983;SDS011;11658;48.908;9.140;2024-01-30T09:33:45;9.10;;;6.57;;
22983;SDS011;11658;48.908;9.140;2024-01-30T09:36:13;9.23;;;7.17;;
22983;SDS011;11658;48.908;9.140;2024-01-30T09:38:40;8.00;;;6.53;;
22983;SDS011;11658;48.908;9.140;2024-01-30T09:41:07;9.43;;;7.17;;
22983;SDS011;11658;48.908;9.140;2024-01-30T09:43:36;8.20;;;6.60;;
22983;SDS011;11658;48.908;9.140;2024-01-30T09:46:03;10.27;;;6.63;;
22983;SDS011;11658;48.908;9.140;2024-01-30T09:48:30;9.63;;;6.83;;
22983;SDS011;11658;48.908;9.140;2024-01-30T09:50:57;10.73;;;7.30;;
22983;SDS011;11658;48.908;9.140;2024-01-30T09:53:23;8.03;;;6.13;;
22983;SDS011;11658;48.908;9.140;2024-01-30T09:55:50;10.50;;;6.27;;
22983;SDS011;11658;48.908;9.140;2024-01-30T09:58:16;8.67;;;5.77;;
22983;SDS011;11658;48.908;9.140;2024-01-30T10:00:41;8.03;;;6.50;;
22983;SDS011;11658;48.908;9.140;2024-01-30T10:03:07;9.30;;;5.90;;
22983;SDS011;11658;48.908;9.140;2024-01-30T10:05:34;7.23;;;5.50;;
22983;SDS011;11658;48.908;9.140;2024-01-30T10:08:05;8.07;;;5.50;;
22983;SDS011;11658;48.908;9.140;2024-01-30T10:10:33;7.13;;;5.23;;
22983;SDS011;11658;48.908;9.140;2024-01-30T10:12:59;6.90;;;5.00;;
22983;SDS011;11658;48.908;9.140;2024-01-30T10:15:25;6.83;;;5.17;;
22983;SDS011;11658;48.908;9.140;2024-01-30T10:17:52;6.90;;;5.20;;
22983;SDS011;11658;48.908;9.140;2024-01-30T10:20:18;7.73;;;4.90;;
22983;SDS011;11658;48.908;9.140;2024-01-30T10:22:44;8.47;;;5.97;;
22983;SDS011;11658;48.908;9.140;2024-01-30T10:25:10;5.70;;;5.07;;
22983;SDS011;11658;48.908;9.140;2024-01-30T10:27:36;6.80;;;5.17;;
22983;SDS011;11658;48.908;9.140;2024-01-30T10:30:04;7.47;;;5.13;;
22983;SDS011;11658;48.908;9.140;2024-01-30T10:32:30;7.47;;;5.40;;
22983;SDS011;11658;48.908;9.140;2024-01-30T10:34:56;5.77;;;4.93;;
22983;SDS011;11658;48.908;9.140;2024-01-30T10:37:22;6.30;;;5.20;;
22983;SDS011;11658;48.908;9.140;2024-01-30T10:39:50;6.13;;;5.37;;
22983;SDS011;11658;48.908;9.140;2024-01-30T10:42:20;6.20;;;5.30;;
22983;SDS011;11658;48.908;9.140;2024-01-30T10:45:10;7.07;;;5.53;;
22983;SDS011;11658;48.908;9.140;2024-01-30T10:47:46;7.20;;;5.33;;
22983;SDS011;11658;48.908;9.140;2024-01-30T10:50:18;7.30;;;5.13;;
22983;SDS011;11658;48.908;9.140;2024-01-30T10:52:44;7.67;;;5.53;;
22983;SDS011;11658;48.908;9.140;2024-01-30T10:55:10;11.63;;;5.50;;
22983;SDS011;11658;48.908;9.140;2024-01-30T10:57:36;9.87;;;5.43;;
22983;SDS011;11658;48.908;9.140;2024-01-30T11:00:09;7.80;;;5.10;;
22983;SDS011;11658;48.908;9.140;2024-01-30T11:02:40;8.00;;;5.70;;
22983;SDS011;11658;48.908;9.140;2024-01-30T11:05:08;7.67;;;5.50;;
22983;SDS011;11658;48.908;9.140;2024-01-30T11:07:34;6.23;;;4.80;;
22983;SDS011;11658;48.908;9.140;2024-01-30T11:10:03;6.27;;;5.30;;
22983;SDS011;11658;48.908;9.140;2024-01-30T11:12:33;9.63;;;6.10;;
22983;SDS011;11658;48.908;9.140;2024-01-30T11:20:16;10.23;;;6.40;;
22983;SDS011;11658;48.908;9.140;2024-01-30T11:22:52;7.80;;;6.43;;
22983;SDS011;11658;48.908;9.140;2024-01-30T11:25:20;8.57;;;6.90;;
22983;SDS011;11658;48.908;9.140;2024-01-30T11:27:46;8.10;;;6.77;;
22983;SDS011;11658;48.908;9.140;2024-01-30T11:30:47;8.37;;;6.90;;
22983;SDS011;11658;48.908;9.140;2024-01-30T11:35:40;8.80;;;6.47;;
22983;SDS011;11658;48.908;9.140;2024-01-30T11:38:06;8.93;;;7.20;;
22983;SDS011;11658;48.908;9.140;2024-01-30T11:40:33;8.03;;;6.93;;
22983;SDS011;11658;48.908;9.140;2024-01-30T11:43:00;9.70;;;7.07;;
22983;SDS011;11658;48.908;9.140;2024-01-30T11:45:27;12.67;;;7.50;;
22983;SDS011;11658;48.908;9.140;2024-01-30T11:47:54;8.10;;;6.70;;
22983;SDS011;11658;48.908;9.140;2024-01-30T11:50:20;8.03;;;6.53;;
22983;SDS011;11658;48.908;9.140;2024-01-30T11:52:46;11.87;;;7.00;;
22983;SDS011;11658;48.908;9.140;2024-01-30T11:55:13;8.20;;;7.40;;
22983;SDS011;11658;48.908;9.140;2024-01-30T11:57:39;9.13;;;6.93;;
22983;SDS011;11658;48.908;9.140;2024-01-30T12:00:05;8.30;;;6.80;;
22983;SDS011;11658;48.908;9.140;2024-01-30T12:02:41;8.50;;;6.30;;
22983;SDS011;11658;48.908;9.140;2024-01-30T12:05:08;9.90;;;7.17;;
22983;SDS011;11658;48.908;9.140;2024-01-30T12:07:36;12.93;;;7.27;;
22983;SDS011;11658;48.908;9.140;2024-01-30T12:10:04;10.40;;;7.07;;
22983;SDS011;11658;48.908;9.140;2024-01-30T12:12:30;12.47;;;7.47;;
22983;SDS011;11658;48.908;9.140;2024-01-30T12:14:56;10.50;;;7.23;;
22983;SDS011;11658;48.908;9.140;2024-01-30T12:17:32;8.37;;;7.43;;
22983;SDS011;11658;48.908;9.140;2024-01-30T12:20:06;11.30;;;7.63;;
22983;SDS011;11658;48.908;9.140;2024-01-30T12:22:45;11.20;;;7.43;;
22983;SDS011;11658;48.908;9.140;2024-01-30T12:25:19;10.77;;;7.67;;
22983;SDS011;11658;48.908;9.140;2024-01-30T12:27:46;9.97;;;7.87;;
22983;SDS011;11658;48.908;9.140;2024-01-30T12:30:17;10.77;;;7.47;;
22983;SDS011;11658;48.908;9.140;2024-01-30T12:32:45;10.30;;;8.10;;
22983;SDS011;11658;48.908;9.140;2024-01-30T12:35:14;13.83;;;8.23;;
22983;SDS011;11658;48.908;9.140;2024-01-30T12:37:40;9.27;;;8.23;;
22983;SDS011;11658;48.908;9.140;2024-01-30T12:40:07;9.70;;;7.87;;
22983;SDS011;11658;48.908;9.140;2024-01-30T12:42:34;10.40;;;8.27;;
22983;SDS011;11658;48.908;9.140;2024-01-30T12:45:02;8.50;;;7.60;;
22983;SDS011;11658;48.908;9.140;2024-01-30T12:47:29;12.57;;;8.27;;
22983;SDS011;11658;48.908;9.140;2024-01-30T12:49:54;9.57;;;8.23;;
22983;SDS011;11658;48.908;9.140;2024-01-30T12:52:20;12.30;;;8.27;;
22983;SDS011;11658;48.908;9.140;2024-01-30T12:54:50;13.47;;;8.53;;
22983;SDS011;11658;48.908;9.140;2024-01-30T12:57:16;8.80;;;7.53;;
22983;SDS011;11658;48.908;9.140;2024-01-30T12:59:43;13.80;;;8.40;;
22983;SDS011;11658;48.908;9.140;2024-01-30T13:02:10;9.53;;;7.90;;
22983;SDS011;11658;48.908;9.140;2024-01-30T13:04:37;10.40;;;8.63;;
22983;SDS011;11658;48.908;9.140;2024-01-30T13:07:02;12.43;;;8.20;;
22983;SDS011;11658;48.908;9.140;2024-01-30T13:09:29;12.87;;;8.40;;
22983;SDS011;11658;48.908;9.140;2024-01-30T13:11:56;11.80;;;8.20;;
22983;SDS011;11658;48.908;9.140;2024-01-30T13:14:21;11.40;;;8.80;;
22983;SDS011;11658;48.908;9.140;2024-01-30T13:16:47;9.43;;;7.93;;
22983;SDS011;11658;48.908;9.140;2024-01-30T13:19:12;15.03;;;7.90;;
22983;SDS011;11658;48.908;9.140;2024-01-30T13:21:38;16.70;;;8.60;;
22983;SDS011;11658;48.908;9.140;2024-01-30T13:24:04;9.87;;;7.90;;
22983;SDS011;11658;48.908;9.140;2024-01-30T13:26:31;9.67;;;7.77;;
22983;SDS011;11658;48.908;9.140;2024-01-30T13:28:57;10.00;;;7.97;;
22983;SDS011;11658;48.908;9.140;2024-01-30T13:31:23;10.40;;;8.33;;
22983;SDS011;11658;48.908;9.140;2024-01-30T13:33:49;8.20;;;6.97;;
22983;SDS011;11658;48.908;9.140;2024-01-30T13:36:14;10.10;;;8.13;;
22983;SDS011;11658;48.908;9.140;2024-01-30T13:38:40;10.67;;;7.90;;
22983;SDS011;11658;48.908;9.140;2024-01-30T13:41:06;11.40;;;7.97;;
22983;SDS011;11658;48.908;9.140;2024-01-30T13:43:32;9.53;;;7.90;;
22983;SDS011;11658;48.908;9.140;2024-01-30T13:45:57;11.50;;;8.20;;
22983;SDS011;11658;48.908;9.140;2024-01-30T13:48:24;11.67;;;7.50;;
22983;SDS011;11658;48.908;9.140;2024-01-30T13:50:49;9.47;;;7.70;;
22983;SDS011;11658;48.908;9.140;2024-01-30T13:53:15;8.73;;;7.33;;
22983;SDS011;11658;48.908;9.140;2024-01-30T13:55:40;10.00;;;8.03;;
22983;SDS011;11658;48.908;9.140;2024-01-30T13:58:06;12.10;;;7.33;;
22983;SDS011;11658;48.908;9.140;2024-01-30T14:00:33;10.20;;;7.50;;
22983;SDS011;11658;48.908;9.140;2024-01-30T14:02:59;10.77;;;7.00;;
22983;SDS011;11658;48.908;9.140;2024-01-30T14:05:25;11.83;;;7.13;;
22983;SDS011;11658;48.908;9.140;2024-01-30T14:07:53;8.10;;;6.83;;
22983;SDS011;11658;48.908;9.140;2024-01-30T14:10:18;9.37;;;7.20;;
22983;SDS011;11658;48.908;9.140;2024-01-30T14:12:45;8.90;;;7.13;;
22983;SDS011;11658;48.908;9.140;2024-01-30T14:15:13;7.93;;;6.87;;
22983;SDS011;11658;48.908;9.140;2024-01-30T14:17:39;8.33;;;7.20;;
22983;SDS011;11658;48.908;9.140;2024-01-30T14:20:05;9.27;;;7.10;;
22983;SDS011;11658;48.908;9.140;2024-01-30T14:22:32;11.37;;;6.90;;
22983;SDS011;11658;48.908;9.140;2024-01-30T14:24:59;11.50;;;7.20;;
22983;SDS011;11658;48.908;9.140;2024-01-30T14:27:25;8.80;;;7.17;;
22983;SDS011;11658;48.908;9.140;2024-01-30T14:29:51;9.73;;;6.87;;
22983;SDS011;11658;48.908;9.140;2024-01-30T14:32:16;8.40;;;6.47;;
22983;SDS011;11658;48.908;9.140;2024-01-30T14:34:42;11.70;;;7.77;;
22983;SDS011;11658;48.908;9.140;2024-01-30T14:37:07;8.13;;;6.50;;
22983;SDS011;11658;48.908;9.140;2024-01-30T14:39:33;8.37;;;6.37;;
22983;SDS011;11658;48.908;9.140;2024-01-30T14:42:02;9.60;;;7.07;;
22983;SDS011;11658;48.908;9.140;2024-01-30T14:44:28;7.83;;;6.23;;
22983;SDS011;11658;48.908;9.140;2024-01-30T14:46:55;9.60;;;6.83;;
22983;SDS011;11658;48.908;9.140;2024-01-30T14:49:21;8.70;;;6.83;;
22983;SDS011;11658;48.908;9.140;2024-01-30T14:51:46;9.30;;;7.10;;
22983;SDS011;11658;48.908;9.140;2024-01-30T14:54:12;8.03;;;7.00;;
22983;SDS011;11658;48.908;9.140;2024-01-30T14:56:38;10.13;;;7.33;;
22983;SDS011;11658;48.908;9.140;2024-01-30T14:59:03;10.23;;;7.67;;
22983;SDS011;11658;48.908;9.140;2024-01-30T15:01:29;10.27;;;7.90;;
22983;SDS011;11658;48.908;9.140;2024-01-30T15:03:54;9.43;;;7.80;;
22983;SDS011;11658;48.908;9.140;2024-01-30T15:06:20;11.17;;;8.03;;
22983;SDS011;11658;48.908;9.140;2024-01-30T15:08:49;10.37;;;8.30;;
22983;SDS011;11658;48.908;9.140;2024-01-30T15:11:15;9.73;;;8.20;;
22983;SDS011;11658;48.908;9.140;2024-01-30T15:13:41;10.53;;;7.30;;
22983;SDS011;11658;48.908;9.140;2024-01-30T15:16:06;11.83;;;7.90;;
22983;SDS011;11658;48.908;9.140;2024-01-30T15:18:32;11.00;;;8.37;;
22983;SDS011;11658;48.908;9.140;2024-01-30T15:20:58;10.40;;;8.47;;
22983;SDS011;11658;48.908;9.140;2024-01-30T15:23:23;9.97;;;7.97;;
22983;SDS011;11658;48.908;9.140;2024-01-30T15:25:49;8.93;;;8.03;;
22983;SDS011;11658;48.908;9.140;2024-01-30T15:28:15;11.07;;;7.93;;
22983;SDS011;11658;48.908;9.140;2024-01-30T15:30:42;8.57;;;7.73;;
22983;SDS011;11658;48.908;9.140;2024-01-30T15:33:08;10.83;;;7.93;;
22983;SDS011;11658;48.908;9.140;2024-01-30T15:35:34;10.60;;;8.20;;
22983;SDS011;11658;48.908;9.140;2024-01-30T15:38:00;10.03;;;8.17;;
22983;SDS011;11658;48.908;9.140;2024-01-30T15:40:27;11.17;;;8.70;;
22983;SDS011;11658;48.908;9.140;2024-01-30T15:42:53;11.67;;;8.00;;
22983;SDS011;11658;48.908;9.140;2024-01-30T15:45:19;10.40;;;7.83;;
22983;SDS011;11658;48.908;9.140;2024-01-30T15:47:44;9.33;;;6.63;;
22983;SDS011;11658;48.908;9.140;2024-01-30T15:50:11;7.33;;;4.87;;
22983;SDS011;11658;48.908;9.140;2024-01-30T15:52:36;4.97;;;3.77;;
22983;SDS011;11658;48.908;9.140;2024-01-30T15:55:02;4.90;;;3.40;;
22983;SDS011;11658;48.908;9.140;2024-01-30T15:57:28;4.63;;;4.03;;
22983;SDS011;11658;48.908;9.140;2024-01-30T15:59:53;6.83;;;4.97;;
22983;SDS011;11658;48.908;9.140;2024-01-30T16:02:19;6.83;;;5.27;;
22983;SDS011;11658;48.908;9.140;2024-01-30T16:04:48;8.30;;;7.03;;
22983;SDS011;11658;48.908;9.140;2024-01-30T16:07:14;12.30;;;7.40;;
22983;SDS011;11658;48.908;9.140;2024-01-30T16:09:40;11.37;;;8.00;;
22983;SDS011;11658;48.908;9.140;2024-01-30T16:12:06;15.03;;;10.40;;
22983;SDS011;11658;48.908;9.140;2024-01-30T16:14:31;13.57;;;9.27;;
22983;SDS011;11658;48.908;9.140;2024-01-30T16:16:58;11.73;;;8.63;;
22983;SDS011;11658;48.908;9.140;2024-01-30T16:19:24;15.07;;;9.43;;
22983;SDS011;11658;48.908;9.140;2024-01-30T16:21:50;12.40;;;9.90;;
22983;SDS011;11658;48.908;9.140;2024-01-30T16:24:15;13.07;;;10.30;;
22983;SDS011;11658;48.908;9.140;2024-01-30T16:26:41;13.50;;;10.10;;
22983;SDS011;11658;48.908;9.140;2024-01-30T16:29:07;11.90;;;9.83;;
22983;SDS011;11658;48.908;9.140;2024-01-30T16:31:33;14.17;;;9.50;;
22983;SDS011;11658;48.908;9.140;2024-01-30T16:33:58;11.77;;;9.17;;
22983;SDS011;11658;48.908;9.140;2024-01-30T16:36:25;12.87;;;8.87;;
22983;SDS011;11658;48.908;9.140;2024-01-30T16:38:50;11.03;;;8.37;;
22983;SDS011;11658;48.908;9.140;2024-01-30T16:41:16;10.37;;;8.60;;
22983;SDS011;11658;48.908;9.140;2024-01-30T16:43:42;11.17;;;8.50;;
22983;SDS011;11658;48.908;9.140;2024-01-30T16:46:08;10.43;;;9.20;;
22983;SDS011;11658;48.908;9.140;2024-01-30T16:48:34;12.50;;;9.30;;
22983;SDS011;11658;48.908;9.140;2024-01-30T16:50:59;16.40;;;9.10;;
22983;SDS011;11658;48.908;9.140;2024-01-30T16:53:25;10.53;;;8.37;;
22983;SDS011;11658;48.908;9.140;2024-01-30T16:55:51;15.97;;;9.33;;
22983;SDS011;11658;48.908;9.140;2024-01-30T16:58:17;11.70;;;8.27;;
22983;SDS011;11658;48.908;9.140;2024-01-30T17:00:42;11.77;;;7.97;;
22983;SDS011;11658;48.908;9.140;2024-01-30T17:03:08;10.67;;;8.33;;
22983;SDS011;11658;48.908;9.140;2024-01-30T17:05:33;9.40;;;8.37;;
22983;SDS011;11658;48.908;9.140;2024-01-30T17:07:59;12.80;;;8.43;;
22983;SDS011;11658;48.908;9.140;2024-01-30T17:10:25;9.50;;;7.57;;
22983;SDS011;11658;48.908;9.140;2024-01-30T17:12:51;8.67;;;7.77;;
22983;SDS011;11658;48.908;9.140;2024-01-30T17:15:20;10.40;;;8.00;;
22983;SDS011;11658;48.908;9.140;2024-01-30T17:17:46;14.07;;;9.03;;
22983;SDS011;11658;48.908;9.140;2024-01-30T17:20:11;10.30;;;8.53;;
22983;SDS011;11658;48.908;9.140;2024-01-30T17:22:37;8.47;;;7.20;;
22983;SDS011;11658;48.908;9.140;2024-01-30T17:25:04;11.80;;;7.80;;
22983;SDS011;11658;48.908;9.140;2024-01-30T17:27:30;11.00;;;7.90;;
22983;SDS011;11658;48.908;9.140;2024-01-30T17:29:56;10.10;;;8.27;;
22983;SDS011;11658;48.908;9.140;2024-01-30T17:32:21;8.73;;;7.17;;
22983;SDS011;11658;48.908;9.140;2024-01-30T17:34:50;10.83;;;7.70;;
22983;SDS011;11658;48.908;9.140;2024-01-30T17:37:16;12.03;;;8.23;;
22983;SDS011;11658;48.908;9.140;2024-01-30T17:39:41;12.03;;;8.07;;
22983;SDS011;11658;48.908;9.140;2024-01-30T17:42:07;13.77;;;7.80;;
22983;SDS011;11658;48.908;9.140;2024-01-30T17:44:32;9.90;;;7.47;;
22983;SDS011;11658;48.908;9.140;2024-01-30T17:47:01;8.60;;;7.20;;
22983;SDS011;11658;48.908;9.140;2024-01-30T17:49:27;13.23;;;7.70;;
22983;SDS011;11658;48.908;9.140;2024-01-30T17:51:54;7.73;;;6.97;;
22983;SDS011;11658;48.908;9.140;2024-01-30T17:54:20;10.90;;;8.93;;
22983;SDS011;11658;48.908;9.140;2024-01-30T17:56:45;12.60;;;8.90;;
22983;SDS011;11658;48.908;9.140;2024-01-30T17:59:11;16.07;;;11.30;;
22983;SDS011;11658;48.908;9.140;2024-01-30T18:01:37;11.73;;;10.33;;
22983;SDS011;11658;48.908;9.140;2024-01-30T18:04:03;15.40;;;10.60;;
22983;SDS011;11658;48.908;9.140;2024-01-30T18:06:28;15.47;;;11.17;;
22983;SDS011;11658;48.908;9.140;2024-01-30T18:08:54;15.33;;;11.30;;
22983;SDS011;11658;48.908;9.140;2024-01-30T18:11:19;15.90;;;10.03;;
22983;SDS011;11658;48.908;9.140;2024-01-30T18:13:45;14.63;;;9.63;;
22983;SDS011;11658;48.908;9.140;2024-01-30T18:16:11;13.63;;;9.10;;
22983;SDS011;11658;48.908;9.140;2024-01-30T18:18:36;12.07;;;8.87;;
22983;SDS011;11658;48.908;9.140;2024-01-30T18:21:02;14.60;;;9.33;;
22983;SDS011;11658;48.908;9.140;2024-01-30T18:23:28;11.40;;;8.83;;
22983;SDS011;11658;48.908;9.140;2024-01-30T18:25:53;10.80;;;8.70;;
22983;SDS011;11658;48.908;9.140;2024-01-30T18:28:26;9.77;;;8.10;;
22983;SDS011;11658;48.908;9.140;2024-01-30T18:30:52;10.80;;;8.47;;
22983;SDS011;11658;48.908;9.140;2024-01-30T18:33:18;9.67;;;7.57;;
22983;SDS011;11658;48.908;9.140;2024-01-30T18:35:44;11.97;;;8.73;;
22983;SDS011;11658;48.908;9.140;2024-01-30T18:38:09;10.45;;;8.40;;
22983;SDS011;11658;48.908;9.140;2024-01-30T18:40:35;11.43;;;8.07;;
22983;SDS011;11658;48.908;9.140;2024-01-30T18:43:00;8.70;;;7.80;;
22983;SDS011;11658;48.908;9.140;2024-01-30T18:45:29;11.03;;;7.90;;
22983;SDS011;11658;48.908;9.140;2024-01-30T18:47:55;11.37;;;8.07;;
22983;SDS011;11658;48.908;9.140;2024-01-30T18:50:20;8.60;;;7.53;;
22983;SDS011;11658;48.908;9.140;2024-01-30T18:52:46;11.70;;;8.03;;
22983;SDS011;11658;48.908;9.140;2024-01-30T18:55:11;9.67;;;8.20;;
22983;SDS011;11658;48.908;9.140;2024-01-30T18:57:37;11.87;;;8.37;;
22983;SDS011;11658;48.908;9.140;2024-01-30T19:00:03;10.70;;;8.10;;
22983;SDS011;11658;48.908;9.140;2024-01-30T19:02:30;13.67;;;9.13;;
22983;SDS011;11658;48.908;9.140;2024-01-30T19:04:55;12.57;;;8.53;;
22983;SDS011;11658;48.908;9.140;2024-01-30T19:07:23;10.20;;;7.83;;
22983;SDS011;11658;48.908;9.140;2024-01-30T19:09:49;9.20;;;7.30;;
22983;SDS011;11658;48.908;9.140;2024-01-30T19:12:16;11.27;;;8.10;;
22983;SDS011;11658;48.908;9.140;2024-01-30T19:14:41;10.83;;;7.70;;
22983;SDS011;11658;48.908;9.140;2024-01-30T19:17:07;10.37;;;7.67;;
22983;SDS011;11658;48.908;9.140;2024-01-30T19:19:32;10.60;;;7.40;;
22983;SDS011;11658;48.908;9.140;2024-01-30T19:21:58;9.23;;;7.30;;
22983;SDS011;11658;48.908;9.140;2024-01-30T19:24:24;11.07;;;7.80;;
22983;SDS011;11658;48.908;9.140;2024-01-30T19:26:49;11.37;;;8.73;;
22983;SDS011;11658;48.908;9.140;2024-01-30T19:29:17;10.40;;;8.63;;
22983;SDS011;11658;48.908;9.140;2024-01-30T19:31:44;11.83;;;8.20;;
22983;SDS011;11658;48.908;9.140;2024-01-30T19:34:10;10.63;;;7.97;;
22983;SDS011;11658;48.908;9.140;2024-01-30T19:36:37;11.63;;;6.80;;
22983;SDS011;11658;48.908;9.140;2024-01-30T19:39:04;10.80;;;7.07;;
22983;SDS011;11658;48.908;9.140;2024-01-30T19:41:36;10.57;;;6.70;;
22983;SDS011;11658;48.908;9.140;2024-01-30T19:44:02;10.80;;;7.33;;
22983;SDS011;11658;48.908;9.140;2024-01-30T19:46:27;8.90;;;6.83;;